sensor_id;sensor_type;location;lat;lon;timestamp;pressure;altitude;pressure_sealevel;temperature;humidity
76973;BME280;65907;53.640;10.050;2023-02-22T00:01:30;101015.94;;;22.91;39.12
76973;BME280;65907;53.640;10.050;2023-02-22T00:04:14;101013.13;;;22.83;39.22
76973;BME280;65907;53.640;10.050;2023-02-22T00:06:43;101005.53;;;22.80;39.29
76973;BME280;65907;53.640;10.050;2023-02-22T00:09:09;101013.34;;;22.70;39.36
76973;BME280;65907;53.640;10.050;2023-02-22T00:11:34;101011.31;;;22.73;39.25
76973;BME280;65907;53.640;10.050;2023-02-22T00:14:02;101009.34;;;22.66;39.44
76973;BME280;65907;53.640;10.050;2023-02-22T00:16:28;101008.97;;;22.70;39.36
76973;BME280;65907;53.640;10.050;2023-02-22T00:18:54;101002.63;;;22.73;39.21
76973;BME280;65907;53.640;10.050;2023-02-22T00:21:19;101010.63;;;22.71;39.34
76973;BME280;65907;53.640;10.050;2023-02-22T00:23:45;101000.56;;;22.76;39.39
76973;BME280;65907;53.640;10.050;2023-02-22T00:26:17;101004.56;;;22.81;39.34
76973;BME280;65907;53.640;10.050;2023-02-22T00:28:44;101002.47;;;22.74;39.28
76973;BME280;65907;53.640;10.050;2023-02-22T00:31:09;100997.66;;;22.80;38.99
76973;BME280;65907;53.640;10.050;2023-02-22T00:33:37;100997.50;;;22.71;39.26
76973;BME280;65907;53.640;10.050;2023-02-22T00:36:02;100994.06;;;22.81;38.82
76973;BME280;65907;53.640;10.050;2023-02-22T00:38:30;100989.91;;;22.68;39.25
76973;BME280;65907;53.640;10.050;2023-02-22T00:40:57;100985.38;;;22.70;39.14
76973;BME280;65907;53.640;10.050;2023-02-22T00:43:22;100986.75;;;22.74;39.26
76973;BME280;65907;53.640;10.050;2023-02-22T00:45:49;100980.44;;;22.77;39.02
76973;BME280;65907;53.640;10.050;2023-02-22T00:48:14;100979.59;;;22.76;39.00
76973;BME280;65907;53.640;10.050;2023-02-22T00:50:39;100981.25;;;22.77;39.00
76973;BME280;65907;53.640;10.050;2023-02-22T00:53:07;100982.06;;;22.68;39.00
76973;BME280;65907;53.640;10.050;2023-02-22T00:55:34;100982.59;;;22.72;38.93
76973;BME280;65907;53.640;10.050;2023-02-22T00:58:00;100977.09;;;22.65;39.00
76973;BME280;65907;53.640;10.050;2023-02-22T01:00:33;100969.50;;;22.62;39.10
76973;BME280;65907;53.640;10.050;2023-02-22T01:02:59;100967.13;;;22.69;38.97
76973;BME280;65907;53.640;10.050;2023-02-22T01:05:25;100964.78;;;22.66;39.08
76973;BME280;65907;53.640;10.050;2023-02-22T01:07:52;100962.88;;;22.77;39.08
76973;BME280;65907;53.640;10.050;2023-02-22T01:10:20;100955.44;;;22.73;38.69
76973;BME280;65907;53.640;10.050;2023-02-22T01:12:46;100952.25;;;22.69;38.97
76973;BME280;65907;53.640;10.050;2023-02-22T01:15:12;100950.75;;;22.76;38.92
76973;BME280;65907;53.640;10.050;2023-02-22T01:17:38;100955.84;;;22.68;38.87
76973;BME280;65907;53.640;10.050;2023-02-22T01:20:08;100961.22;;;22.76;38.96
76973;BME280;65907;53.640;10.050;2023-02-22T01:22:34;100953.06;;;22.70;38.74
76973;BME280;65907;53.640;10.050;2023-02-22T01:24:59;100958.47;;;22.68;38.95
76973;BME280;65907;53.640;10.050;2023-02-22T01:27:25;100953.06;;;22.70;38.96
76973;BME280;65907;53.640;10.050;2023-02-22T01:29:52;100948.28;;;22.75;38.78
76973;BME280;65907;53.640;10.050;2023-02-22T01:32:18;100948.53;;;22.72;38.69
76973;BME280;65907;53.640;10.050;2023-02-22T01:34:43;100942.47;;;22.71;38.69
76973;BME280;65907;53.640;10.050;2023-02-22T01:37:08;100940.78;;;22.60;38.89
76973;BME280;65907;53.640;10.050;2023-02-22T01:39:33;100933.88;;;22.59;38.72
76973;BME280;65907;53.640;10.050;2023-02-22T01:41:58;100935.41;;;22.62;38.68
76973;BME280;65907;53.640;10.050;2023-02-22T01:44:29;100932.53;;;22.65;39.13
76973;BME280;65907;53.640;10.050;2023-02-22T01:46:55;100939.94;;;22.60;38.79
76973;BME280;65907;53.640;10.050;2023-02-22T01:49:20;100926.84;;;22.70;38.82
76973;BME280;65907;53.640;10.050;2023-02-22T01:51:48;100928.75;;;22.58;38.96
76973;BME280;65907;53.640;10.050;2023-02-22T01:56:44;100927.28;;;22.65;38.84
76973;BME280;65907;53.640;10.050;2023-02-22T01:59:11;100926.44;;;22.65;38.68
76973;BME280;65907;53.640;10.050;2023-02-22T02:01:37;100928.09;;;22.66;38.71
76973;BME280;65907;53.640;10.050;2023-02-22T02:04:18;100916.50;;;22.58;38.90
76973;BME280;65907;53.640;10.050;2023-02-22T02:06:44;100916.78;;;22.55;38.74
76973;BME280;65907;53.640;10.050;2023-02-22T02:09:17;100924.22;;;22.60;38.69
76973;BME280;65907;53.640;10.050;2023-02-22T02:11:44;100924.78;;;22.63;38.55
76973;BME280;65907;53.640;10.050;2023-02-22T02:14:10;100920.66;;;22.61;38.77
76973;BME280;65907;53.640;10.050;2023-02-22T02:16:39;100917.31;;;22.59;38.66
76973;BME280;65907;53.640;10.050;2023-02-22T02:19:10;100905.59;;;22.53;38.65
76973;BME280;65907;53.640;10.050;2023-02-22T02:34:08;100900.06;;;22.46;38.85
76973;BME280;65907;53.640;10.050;2023-02-22T02:39:27;100903.38;;;22.48;39.06
76973;BME280;65907;53.640;10.050;2023-02-22T02:41:53;100901.97;;;22.44;39.04
76973;BME280;65907;53.640;10.050;2023-02-22T02:46:49;100903.38;;;22.48;38.88
76973;BME280;65907;53.640;10.050;2023-02-22T02:49:18;100906.22;;;22.45;38.67
76973;BME280;65907;53.640;10.050;2023-02-22T02:51:48;100905.88;;;22.50;38.78
76973;BME280;65907;53.640;10.050;2023-02-22T02:54:15;100893.94;;;22.46;38.97
76973;BME280;65907;53.640;10.050;2023-02-22T02:56:41;100897.16;;;22.49;38.71
76973;BME280;65907;53.640;10.050;2023-02-22T02:59:26;100892.88;;;22.48;38.84
76973;BME280;65907;53.640;10.050;2023-02-22T03:11:57;100876.72;;;22.43;38.63
76973;BME280;65907;53.640;10.050;2023-02-22T03:14:30;100876.19;;;22.49;38.52
76973;BME280;65907;53.640;10.050;2023-02-22T03:17:14;100866.06;;;22.35;38.68
76973;BME280;65907;53.640;10.050;2023-02-22T03:20:05;100867.19;;;22.42;38.63
76973;BME280;65907;53.640;10.050;2023-02-22T03:22:32;100858.22;;;22.45;38.78
76973;BME280;65907;53.640;10.050;2023-02-22T03:25:06;100854.91;;;22.43;38.75
76973;BME280;65907;53.640;10.050;2023-02-22T03:27:48;100855.50;;;22.46;38.78
76973;BME280;65907;53.640;10.050;2023-02-22T03:30:26;100845.78;;;22.37;38.64
76973;BME280;65907;53.640;10.050;2023-02-22T03:32:56;100850.63;;;22.42;38.93
76973;BME280;65907;53.640;10.050;2023-02-22T03:35:25;100851.47;;;22.42;38.58
76973;BME280;65907;53.640;10.050;2023-02-22T03:37:55;100851.88;;;22.38;38.65
76973;BME280;65907;53.640;10.050;2023-02-22T03:40:29;100844.97;;;22.37;38.71
76973;BME280;65907;53.640;10.050;2023-02-22T03:43:03;100856.41;;;22.35;38.53
76973;BME280;65907;53.640;10.050;2023-02-22T03:45:31;100844.72;;;22.40;38.74
76973;BME280;65907;53.640;10.050;2023-02-22T03:48:01;100847.47;;;22.38;38.77
76973;BME280;65907;53.640;10.050;2023-02-22T03:50:27;100849.25;;;22.38;38.85
76973;BME280;65907;53.640;10.050;2023-02-22T03:52:55;100846.34;;;22.31;38.70
76973;BME280;65907;53.640;10.050;2023-02-22T03:55:23;100845.09;;;22.35;38.84
76973;BME280;65907;53.640;10.050;2023-02-22T03:57:49;100845.41;;;22.42;38.62
76973;BME280;65907;53.640;10.050;2023-02-22T04:00:18;100847.31;;;22.40;38.64
76973;BME280;65907;53.640;10.050;2023-02-22T04:02:44;100832.69;;;22.37;38.53
76973;BME280;65907;53.640;10.050;2023-02-22T04:05:12;100848.00;;;22.32;38.46
76973;BME280;65907;53.640;10.050;2023-02-22T04:07:38;100834.50;;;22.37;38.53
76973;BME280;65907;53.640;10.050;2023-02-22T04:10:03;100837.00;;;22.38;38.71
76973;BME280;65907;53.640;10.050;2023-02-22T04:12:32;100836.16;;;22.38;38.37
76973;BME280;65907;53.640;10.050;2023-02-22T04:14:57;100833.41;;;22.39;38.60
76973;BME280;65907;53.640;10.050;2023-02-22T04:17:22;100835.75;;;22.42;38.49
76973;BME280;65907;53.640;10.050;2023-02-22T04:19:48;100840.16;;;22.42;38.53
76973;BME280;65907;53.640;10.050;2023-02-22T04:22:13;100824.59;;;22.40;38.52
76973;BME280;65907;53.640;10.050;2023-02-22T04:24:44;100827.44;;;22.37;38.50
76973;BME280;65907;53.640;10.050;2023-02-22T04:27:09;100827.34;;;22.39;38.67
76973;BME280;65907;53.640;10.050;2023-02-22T04:29:35;100837.94;;;22.37;38.55
76973;BME280;65907;53.640;10.050;2023-02-22T04:32:00;100836.16;;;22.38;38.47
76973;BME280;65907;53.640;10.050;2023-02-22T04:34:29;100830.06;;;22.37;38.58
76973;BME280;65907;53.640;10.050;2023-02-22T04:36:54;100833.66;;;22.36;38.44
76973;BME280;65907;53.640;10.050;2023-02-22T04:39:20;100826.53;;;22.38;38.46
76973;BME280;65907;53.640;10.050;2023-02-22T04:41:45;100832.00;;;22.35;38.42
76973;BME280;65907;53.640;10.050;2023-02-22T04:44:12;100836.44;;;22.34;38.70
76973;BME280;65907;53.640;10.050;2023-02-22T04:46:38;100838.19;;;22.34;38.59
76973;BME280;65907;53.640;10.050;2023-02-22T04:49:05;100836.84;;;22.40;38.35
76973;BME280;65907;53.640;10.050;2023-02-22T04:51:30;100828.97;;;22.40;38.38
76973;BME280;65907;53.640;10.050;2023-02-22T04:53:56;100828.69;;;22.33;38.37
76973;BME280;65907;53.640;10.050;2023-02-22T04:56:22;100826.50;;;22.28;38.51
76973;BME280;65907;53.640;10.050;2023-02-22T04:58:50;100826.34;;;22.30;38.46
76973;BME280;65907;53.640;10.050;2023-02-22T05:01:15;100834.19;;;22.30;38.61
76973;BME280;65907;53.640;10.050;2023-02-22T05:03:41;100828.84;;;22.31;38.51
76973;BME280;65907;53.640;10.050;2023-02-22T05:06:11;100820.03;;;22.32;38.57
76973;BME280;65907;53.640;10.050;2023-02-22T05:08:37;100821.78;;;22.32;38.52
76973;BME280;65907;53.640;10.050;2023-02-22T05:11:02;100823.44;;;22.33;38.30
76973;BME280;65907;53.640;10.050;2023-02-22T05:13:30;100818.78;;;22.37;38.26
76973;BME280;65907;53.640;10.050;2023-02-22T05:16:00;100817.53;;;22.31;38.67
76973;BME280;65907;53.640;10.050;2023-02-22T05:18:26;100817.53;;;22.31;38.46
76973;BME280;65907;53.640;10.050;2023-02-22T05:20:52;100812.56;;;22.38;38.21
76973;BME280;65907;53.640;10.050;2023-02-22T05:23:17;100810.91;;;22.37;38.25
76973;BME280;65907;53.640;10.050;2023-02-22T05:25:42;100814.34;;;22.37;38.32
76973;BME280;65907;53.640;10.050;2023-02-22T05:28:10;100807.34;;;22.38;38.24
76973;BME280;65907;53.640;10.050;2023-02-22T05:30:38;100803.31;;;22.24;38.42
76973;BME280;65907;53.640;10.050;2023-02-22T05:33:06;100809.00;;;22.39;38.34
76973;BME280;65907;53.640;10.050;2023-02-22T05:35:31;100801.97;;;22.39;38.10
76973;BME280;65907;53.640;10.050;2023-02-22T05:37:57;100805.13;;;22.43;38.04
76973;BME280;65907;53.640;10.050;2023-02-22T05:40:24;100804.28;;;22.23;38.38
76973;BME280;65907;53.640;10.050;2023-02-22T05:42:50;100798.06;;;22.14;38.58
76973;BME280;65907;53.640;10.050;2023-02-22T05:45:16;100799.63;;;22.46;37.98
76973;BME280;65907;53.640;10.050;2023-02-22T05:47:41;100798.50;;;22.39;37.72
76973;BME280;65907;53.640;10.050;2023-02-22T05:50:07;100797.25;;;22.33;38.19
76973;BME280;65907;53.640;10.050;2023-02-22T05:52:35;100792.72;;;22.45;37.73
76973;BME280;65907;53.640;10.050;2023-02-22T05:55:00;100794.25;;;22.38;37.98
76973;BME280;65907;53.640;10.050;2023-02-22T05:57:25;100793.19;;;22.50;37.85
76973;BME280;65907;53.640;10.050;2023-02-22T05:59:51;100789.72;;;22.49;37.99
76973;BME280;65907;53.640;10.050;2023-02-22T06:02:16;100787.69;;;22.53;37.68
76973;BME280;65907;53.640;10.050;2023-02-22T06:04:44;100793.19;;;22.50;37.72
76973;BME280;65907;53.640;10.050;2023-02-22T06:07:10;100794.16;;;22.49;37.88
76973;BME280;65907;53.640;10.050;2023-02-22T06:09:35;100788.44;;;22.34;38.17
76973;BME280;65907;53.640;10.050;2023-02-22T06:12:00;100787.47;;;22.35;38.33
76973;BME280;65907;53.640;10.050;2023-02-22T06:14:26;100790.38;;;22.32;38.39
76973;BME280;65907;53.640;10.050;2023-02-22T06:16:54;100791.34;;;22.41;38.28
76973;BME280;65907;53.640;10.050;2023-02-22T06:19:22;100789.13;;;22.36;38.55
76973;BME280;65907;53.640;10.050;2023-02-22T06:21:48;100787.75;;;22.42;38.05
76973;BME280;65907;53.640;10.050;2023-02-22T06:24:13;100784.59;;;22.38;38.41
76973;BME280;65907;53.640;10.050;2023-02-22T06:26:41;100779.91;;;22.42;38.30
76973;BME280;65907;53.640;10.050;2023-02-22T06:29:06;100784.16;;;22.43;38.16
76973;BME280;65907;53.640;10.050;2023-02-22T06:31:34;100786.66;;;22.44;38.28
76973;BME280;65907;53.640;10.050;2023-02-22T06:34:00;100783.63;;;22.39;38.55
76973;BME280;65907;53.640;10.050;2023-02-22T06:36:25;100777.25;;;22.32;38.66
76973;BME280;65907;53.640;10.050;2023-02-22T06:38:53;100786.66;;;22.44;38.05
76973;BME280;65907;53.640;10.050;2023-02-22T06:41:22;100782.50;;;22.42;38.22
76973;BME280;65907;53.640;10.050;2023-02-22T06:43:47;100783.34;;;22.42;38.17
76973;BME280;65907;53.640;10.050;2023-02-22T06:46:14;100779.91;;;22.42;38.27
76973;BME280;65907;53.640;10.050;2023-02-22T06:48:40;100792.22;;;22.51;38.12
76973;BME280;65907;53.640;10.050;2023-02-22T06:51:08;100793.31;;;22.48;38.09
76973;BME280;65907;53.640;10.050;2023-02-22T06:53:36;100793.88;;;22.52;37.95
76973;BME280;65907;53.640;10.050;2023-02-22T06:56:04;100790.00;;;22.46;37.96
76973;BME280;65907;53.640;10.050;2023-02-22T06:58:29;100790.41;;;22.52;38.04
76973;BME280;65907;53.640;10.050;2023-02-22T07:00:57;100792.75;;;22.55;37.87
76973;BME280;65907;53.640;10.050;2023-02-22T07:03:23;100784.50;;;22.59;38.01
76973;BME280;65907;53.640;10.050;2023-02-22T07:05:48;100792.22;;;22.51;38.17
76973;BME280;65907;53.640;10.050;2023-02-22T07:08:13;100782.97;;;22.57;37.81
76973;BME280;65907;53.640;10.050;2023-02-22T07:10:38;100794.56;;;22.54;37.98
76973;BME280;65907;53.640;10.050;2023-02-22T07:13:04;100792.22;;;22.51;37.92
76973;BME280;65907;53.640;10.050;2023-02-22T07:15:31;100789.47;;;22.53;37.90
76973;BME280;65907;53.640;10.050;2023-02-22T07:17:57;100794.13;;;22.59;37.98
76973;BME280;65907;53.640;10.050;2023-02-22T07:20:22;100787.25;;;22.68;37.58
76973;BME280;65907;53.640;10.050;2023-02-22T07:22:48;100785.13;;;22.32;37.67
76973;BME280;65907;53.640;10.050;2023-02-22T07:25:15;100790.81;;;22.47;37.13
76973;BME280;65907;53.640;10.050;2023-02-22T07:27:40;100782.59;;;22.01;38.81
76973;BME280;65907;53.640;10.050;2023-02-22T07:30:06;100779.03;;;21.49;38.97
76973;BME280;65907;53.640;10.050;2023-02-22T07:32:34;100787.28;;;22.07;38.73
76973;BME280;65907;53.640;10.050;2023-02-22T07:35:00;100791.25;;;21.91;39.05
76973;BME280;65907;53.640;10.050;2023-02-22T07:37:26;100785.41;;;21.78;39.26
76973;BME280;65907;53.640;10.050;2023-02-22T07:39:54;100780.38;;;22.06;39.12
76973;BME280;65907;53.640;10.050;2023-02-22T07:42:19;100786.50;;;22.16;38.57
76973;BME280;65907;53.640;10.050;2023-02-22T07:44:45;100789.53;;;22.22;38.86
76973;BME280;65907;53.640;10.050;2023-02-22T07:47:10;100794.44;;;22.05;39.39
76973;BME280;65907;53.640;10.050;2023-02-22T07:49:42;100782.47;;;22.22;38.63
76973;BME280;65907;53.640;10.050;2023-02-22T07:52:16;100776.69;;;22.09;38.89
76973;BME280;65907;53.640;10.050;2023-02-22T07:54:44;100776.53;;;22.10;38.87
76973;BME280;65907;53.640;10.050;2023-02-22T07:57:09;100774.69;;;21.91;38.99
76973;BME280;65907;53.640;10.050;2023-02-22T07:59:37;100778.63;;;22.16;38.91
76973;BME280;65907;53.640;10.050;2023-02-22T08:02:04;100779.50;;;21.86;39.27
76973;BME280;65907;53.640;10.050;2023-02-22T08:04:32;100775.25;;;21.85;39.55
76973;BME280;65907;53.640;10.050;2023-02-22T08:06:57;100779.53;;;22.46;38.07
76973;BME280;65907;53.640;10.050;2023-02-22T08:09:22;100772.69;;;22.24;39.52
76973;BME280;65907;53.640;10.050;2023-02-22T08:11:48;100775.53;;;22.52;38.96
76973;BME280;65907;53.640;10.050;2023-02-22T08:14:14;100770.44;;;22.80;37.95
76973;BME280;65907;53.640;10.050;2023-02-22T08:16:40;100775.09;;;22.86;38.03
76973;BME280;65907;53.640;10.050;2023-02-22T08:19:05;100766.25;;;22.97;37.73
76973;BME280;65907;53.640;10.050;2023-02-22T08:21:30;100765.56;;;22.95;37.65
76973;BME280;65907;53.640;10.050;2023-02-22T08:23:55;100758.28;;;22.89;37.88
76973;BME280;65907;53.640;10.050;2023-02-22T08:26:21;100767.78;;;23.00;37.55
76973;BME280;65907;53.640;10.050;2023-02-22T08:28:47;100770.41;;;23.00;37.38
76973;BME280;65907;53.640;10.050;2023-02-22T08:31:21;100763.78;;;22.96;37.72
76973;BME280;65907;53.640;10.050;2023-02-22T08:33:47;100763.06;;;23.03;37.47
76973;BME280;65907;53.640;10.050;2023-02-22T08:36:13;100767.09;;;23.08;37.37
76973;BME280;65907;53.640;10.050;2023-02-22T08:38:38;100760.59;;;23.12;37.33
76973;BME280;65907;53.640;10.050;2023-02-22T08:41:03;100757.72;;;22.56;37.99
76973;BME280;65907;53.640;10.050;2023-02-22T08:43:28;100759.38;;;22.76;37.84
76973;BME280;65907;53.640;10.050;2023-02-22T08:45:54;100756.03;;;22.45;38.58
76973;BME280;65907;53.640;10.050;2023-02-22T08:48:21;100745.31;;;22.38;38.83
76973;BME280;65907;53.640;10.050;2023-02-22T08:50:52;100746.97;;;22.39;38.78
76973;BME280;65907;53.640;10.050;2023-02-22T08:53:17;100756.19;;;22.43;38.73
76973;BME280;65907;53.640;10.050;2023-02-22T08:55:43;100756.22;;;22.63;38.21
76973;BME280;65907;53.640;10.050;2023-02-22T08:58:11;100760.78;;;22.61;38.09
76973;BME280;65907;53.640;10.050;2023-02-22T09:00:37;100754.81;;;22.59;38.05
76973;BME280;65907;53.640;10.050;2023-02-22T09:03:03;100760.72;;;22.31;39.02
76973;BME280;65907;53.640;10.050;2023-02-22T09:05:29;100753.31;;;22.46;38.63
76973;BME280;65907;53.640;10.050;2023-02-22T09:07:54;100758.41;;;22.58;38.27
76973;BME280;65907;53.640;10.050;2023-02-22T09:10:22;100758.28;;;22.69;37.92
76973;BME280;65907;53.640;10.050;2023-02-22T09:12:51;100754.41;;;22.73;37.97
76973;BME280;65907;53.640;10.050;2023-02-22T09:15:24;100752.78;;;22.72;37.89
76973;BME280;65907;53.640;10.050;2023-02-22T09:17:53;100750.31;;;22.51;38.37
76973;BME280;65907;53.640;10.050;2023-02-22T09:20:18;100757.19;;;22.62;38.36
76973;BME280;65907;53.640;10.050;2023-02-22T09:22:44;100755.25;;;22.64;38.52
76973;BME280;65907;53.640;10.050;2023-02-22T09:25:10;100758.56;;;22.46;38.75
76973;BME280;65907;53.640;10.050;2023-02-22T09:27:35;100751.13;;;22.61;38.45
76973;BME280;65907;53.640;10.050;2023-02-22T09:30:00;100746.97;;;22.59;38.25
76973;BME280;65907;53.640;10.050;2023-02-22T09:32:28;100742.56;;;22.59;38.37
76973;BME280;65907;53.640;10.050;2023-02-22T09:34:56;100741.03;;;22.57;38.28
76973;BME280;65907;53.640;10.050;2023-02-22T09:37:21;100740.75;;;22.60;38.40
76973;BME280;65907;53.640;10.050;2023-02-22T09:39:46;100740.50;;;22.53;38.70
76973;BME280;65907;53.640;10.050;2023-02-22T09:42:16;100746.44;;;22.65;38.24
76973;BME280;65907;53.640;10.050;2023-02-22T09:44:49;100750.84;;;22.74;37.79
76973;BME280;65907;53.640;10.050;2023-02-22T09:47:21;100741.72;;;22.69;38.10
76973;BME280;65907;53.640;10.050;2023-02-22T09:52:25;100744.63;;;22.66;38.28
76973;BME280;65907;53.640;10.050;2023-02-22T09:55:35;100737.16;;;22.71;37.91
76973;BME280;65907;53.640;10.050;2023-02-22T09:57:41;100733.47;;;22.54;38.36
76973;BME280;65907;53.640;10.050;2023-02-22T10:02:43;100735.28;;;22.63;38.29
76973;BME280;65907;53.640;10.050;2023-02-22T10:05:17;100724.91;;;22.61;38.33
76973;BME280;65907;53.640;10.050;2023-02-22T10:07:51;100726.56;;;22.53;38.45
76973;BME280;65907;53.640;10.050;2023-02-22T10:10:19;100722.25;;;22.42;38.85
76973;BME280;65907;53.640;10.050;2023-02-22T10:15:43;100713.88;;;22.38;38.88
76973;BME280;65907;53.640;10.050;2023-02-22T10:18:24;100705.84;;;22.40;38.78
76973;BME280;65907;53.640;10.050;2023-02-22T10:28:37;100711.00;;;22.61;38.49
76973;BME280;65907;53.640;10.050;2023-02-22T10:31:15;100704.22;;;22.48;38.65
76973;BME280;65907;53.640;10.050;2023-02-22T10:33:45;100699.78;;;22.59;38.66
76973;BME280;65907;53.640;10.050;2023-02-22T10:36:15;100702.00;;;22.54;38.66
76973;BME280;65907;53.640;10.050;2023-02-22T10:38:50;100699.25;;;22.65;38.64
76973;BME280;65907;53.640;10.050;2023-02-22T10:41:40;100694.13;;;22.44;38.66
76973;BME280;65907;53.640;10.050;2023-02-22T10:44:03;100696.75;;;22.34;39.04
76973;BME280;65907;53.640;10.050;2023-02-22T10:46:29;100689.59;;;22.26;39.35
76973;BME280;65907;53.640;10.050;2023-02-22T10:48:56;100689.84;;;22.33;39.09
76973;BME280;65907;53.640;10.050;2023-02-22T10:51:26;100691.94;;;22.39;39.01
76973;BME280;65907;53.640;10.050;2023-02-22T10:53:55;100687.22;;;22.43;38.86
76973;BME280;65907;53.640;10.050;2023-02-22T10:56:22;100674.97;;;22.43;38.99
76973;BME280;65907;53.640;10.050;2023-02-22T10:58:50;100676.75;;;22.33;39.31
76973;BME280;65907;53.640;10.050;2023-02-22T11:03:43;100676.34;;;22.38;39.25
76973;BME280;65907;53.640;10.050;2023-02-22T11:06:18;100681.72;;;22.36;39.21
76973;BME280;65907;53.640;10.050;2023-02-22T11:08:46;100670.44;;;22.35;39.24
76973;BME280;65907;53.640;10.050;2023-02-22T11:11:24;100670.97;;;22.29;39.16
76973;BME280;65907;53.640;10.050;2023-02-22T11:13:53;100669.06;;;22.41;39.29
76973;BME280;65907;53.640;10.050;2023-02-22T11:19:00;100669.47;;;22.46;39.19
76973;BME280;65907;53.640;10.050;2023-02-22T11:21:26;100668.50;;;22.38;39.05
76973;BME280;65907;53.640;10.050;2023-02-22T11:24:00;100672.75;;;22.39;39.28
76973;BME280;65907;53.640;10.050;2023-02-22T11:26:27;100661.31;;;22.40;39.24
76973;BME280;65907;53.640;10.050;2023-02-22T11:28:52;100662.56;;;22.45;38.92
76973;BME280;65907;53.640;10.050;2023-02-22T11:31:27;100652.38;;;22.52;38.86
76973;BME280;65907;53.640;10.050;2023-02-22T11:33:59;100648.22;;;22.40;39.10
76973;BME280;65907;53.640;10.050;2023-02-22T11:36:31;100643.94;;;22.58;38.52
76973;BME280;65907;53.640;10.050;2023-02-22T11:38:57;100644.81;;;22.49;38.94
76973;BME280;65907;53.640;10.050;2023-02-22T11:41:30;100641.63;;;22.55;38.52
76973;BME280;65907;53.640;10.050;2023-02-22T11:56:50;100636.22;;;22.47;38.77
76973;BME280;65907;53.640;10.050;2023-02-22T12:07:31;100625.19;;;22.43;39.02
76973;BME280;65907;53.640;10.050;2023-02-22T12:15:36;100614.28;;;22.58;38.87
76973;BME280;65907;53.640;10.050;2023-02-22T12:20:44;100601.00;;;22.79;38.31
76973;BME280;65907;53.640;10.050;2023-02-22T12:23:16;100611.78;;;21.58;37.32
76973;BME280;65907;53.640;10.050;2023-02-22T12:26:29;100616.72;;;18.44;43.21
76973;BME280;65907;53.640;10.050;2023-02-22T12:31:49;100610.34;;;17.88;45.36
76973;BME280;65907;53.640;10.050;2023-02-22T12:36:42;100605.00;;;19.09;41.62
76973;BME280;65907;53.640;10.050;2023-02-22T12:41:57;100592.78;;;19.43;41.08
76973;BME280;65907;53.640;10.050;2023-02-22T12:44:28;100591.34;;;19.62;40.99
76973;BME280;65907;53.640;10.050;2023-02-22T12:46:56;100588.91;;;19.38;41.32
76973;BME280;65907;53.640;10.050;2023-02-22T12:52:02;100590.41;;;19.52;40.95
76973;BME280;65907;53.640;10.050;2023-02-22T12:57:14;100583.00;;;19.68;40.96
76973;BME280;65907;53.640;10.050;2023-02-22T12:59:49;100581.50;;;20.31;40.39
76973;BME280;65907;53.640;10.050;2023-02-22T13:04:42;100575.53;;;21.43;38.34
76973;BME280;65907;53.640;10.050;2023-02-22T13:12:21;100560.31;;;21.98;37.38
76973;BME280;65907;53.640;10.050;2023-02-22T13:22:40;100550.13;;;21.75;37.98
76973;BME280;65907;53.640;10.050;2023-02-22T13:27:46;100546.75;;;22.22;37.52
76973;BME280;65907;53.640;10.050;2023-02-22T13:33:15;100534.84;;;22.57;37.50
76973;BME280;65907;53.640;10.050;2023-02-22T13:51:49;100526.19;;;22.37;54.53
76973;BME280;65907;53.640;10.050;2023-02-22T13:56:41;100523.97;;;22.90;49.49
76973;BME280;65907;53.640;10.050;2023-02-22T13:59:19;100518.00;;;22.98;48.45
76973;BME280;65907;53.640;10.050;2023-02-22T14:01:47;100509.22;;;23.07;48.93
76973;BME280;65907;53.640;10.050;2023-02-22T14:04:20;100511.63;;;23.00;48.54
76973;BME280;65907;53.640;10.050;2023-02-22T14:06:48;100507.53;;;23.16;47.43
76973;BME280;65907;53.640;10.050;2023-02-22T14:09:14;100508.94;;;23.10;46.91
76973;BME280;65907;53.640;10.050;2023-02-22T14:11:43;100509.97;;;23.17;46.57
76973;BME280;65907;53.640;10.050;2023-02-22T14:14:30;100509.69;;;23.30;46.15
76973;BME280;65907;53.640;10.050;2023-02-22T14:19:38;100507.63;;;22.96;46.61
76973;BME280;65907;53.640;10.050;2023-02-22T14:22:07;100503.75;;;23.00;46.33
76973;BME280;65907;53.640;10.050;2023-02-22T14:27:37;100500.75;;;22.95;43.84
76973;BME280;65907;53.640;10.050;2023-02-22T14:30:02;100502.75;;;22.45;44.26
76973;BME280;65907;53.640;10.050;2023-02-22T14:32:30;100502.59;;;22.47;44.26
76973;BME280;65907;53.640;10.050;2023-02-22T14:34:57;100498.78;;;22.31;43.57
76973;BME280;65907;53.640;10.050;2023-02-22T14:37:25;100492.56;;;22.42;44.00
76973;BME280;65907;53.640;10.050;2023-02-22T14:39:52;100497.50;;;22.45;43.48
76973;BME280;65907;53.640;10.050;2023-02-22T14:42:28;100496.78;;;22.63;42.28
76973;BME280;65907;53.640;10.050;2023-02-22T14:47:26;100488.38;;;22.59;42.12
76973;BME280;65907;53.640;10.050;2023-02-22T14:49:55;100483.84;;;22.52;42.08
76973;BME280;65907;53.640;10.050;2023-02-22T14:52:23;100489.00;;;22.71;41.30
76973;BME280;65907;53.640;10.050;2023-02-22T14:54:54;100479.88;;;22.47;41.70
76973;BME280;65907;53.640;10.050;2023-02-22T14:57:29;100484.91;;;22.59;41.50
76973;BME280;65907;53.640;10.050;2023-02-22T15:02:54;100485.66;;;22.51;41.64
76973;BME280;65907;53.640;10.050;2023-02-22T15:05:25;100484.47;;;22.63;41.05
76973;BME280;65907;53.640;10.050;2023-02-22T15:07:58;100484.31;;;22.75;40.95
76973;BME280;65907;53.640;10.050;2023-02-22T15:10:25;100476.66;;;22.82;40.59